Time;durP1;ratioP1;P1;durP2;ratioP2;P2;SDS_P1;SDS_P2;PMS_P1;PMS_P2;Temp;Humidity;BMP_temperature;BMP_pressure;BME280_temperature;BME280_humidity;BME280_pressure;Samples;Min_cycle;Max_cycle;Signal;HPM_P1;HPM_P2
2023/01/08 00:01:10;;;;;;;4.72;2.60;;;9.30;99.90;;;;;;5094144;28;20405;-78
2023/01/08 00:03:36;;;;;;;3.70;2.53;;;9.30;99.90;;;;;;5078362;28;20433;-78
2023/01/08 00:06:04;;;;;;;4.70;2.38;;;9.30;99.90;;;;;;5094230;28;20429;-78
2023/01/08 00:08:30;;;;;;;4.38;2.92;;;9.30;99.90;;;;;;5080019;28;20412;-78
2023/01/08 00:10:56;;;;;;;3.38;2.38;;;9.30;99.90;;;;;;5093463;28;20406;-78
2023/01/08 00:13:22;;;;;;;4.30;2.40;;;9.30;99.90;;;;;;5096169;28;20396;-78
2023/01/08 00:15:47;;;;;;;4.10;2.40;;;9.30;99.90;;;;;;5093681;28;20501;-78
2023/01/08 00:18:13;;;;;;;3.70;2.13;;;9.40;99.90;;;;;;5096356;28;20412;-78
2023/01/08 00:20:45;;;;;;;4.32;2.40;;;9.40;99.90;;;;;;5095445;28;20405;-78
2023/01/08 00:23:15;;;;;;;3.85;2.30;;;9.40;99.90;;;;;;5079136;28;20454;-78
2023/01/08 00:25:41;;;;;;;3.33;2.10;;;9.40;99.90;;;;;;5093893;28;20457;-78
2023/01/08 00:28:07;;;;;;;3.42;2.30;;;9.40;99.90;;;;;;5098685;28;20982;-78
2023/01/08 00:30:32;;;;;;;4.18;2.10;;;9.40;99.90;;;;;;5093483;28;21113;-77
2023/01/08 00:32:58;;;;;;;3.50;2.10;;;9.40;99.90;;;;;;5097998;28;20398;-77
2023/01/08 00:35:24;;;;;;;3.63;2.17;;;9.40;99.90;;;;;;5092808;28;20409;-77
2023/01/08 00:37:50;;;;;;;3.87;2.20;;;9.40;99.90;;;;;;5098338;28;20408;-78
2023/01/08 00:40:15;;;;;;;4.75;2.40;;;9.40;99.90;;;;;;5095287;28;20494;-78
2023/01/08 00:42:41;;;;;;;4.35;2.10;;;9.40;99.90;;;;;;5099020;28;20490;-77
2023/01/08 00:45:07;;;;;;;3.73;2.03;;;9.50;99.90;;;;;;5090209;28;20405;-78
2023/01/08 00:47:32;;;;;;;4.57;1.92;;;9.60;99.90;;;;;;5098613;28;20403;-78
2023/01/08 00:49:58;;;;;;;2.80;1.98;;;9.60;99.90;;;;;;5092912;28;20402;-78
2023/01/08 00:52:24;;;;;;;2.90;2.07;;;9.60;99.90;;;;;;5072180;28;21042;-78
2023/01/08 00:54:50;;;;;;;3.60;1.90;;;9.60;99.90;;;;;;5091040;28;20915;-77
2023/01/08 00:57:15;;;;;;;3.22;2.10;;;9.60;99.90;;;;;;5092327;28;20461;-78
2023/01/08 00:59:41;;;;;;;4.00;2.03;;;9.60;99.90;;;;;;5091543;28;20398;-78
2023/01/08 01:02:07;;;;;;;3.03;1.80;;;9.60;99.90;;;;;;5092417;28;20449;-78
2023/01/08 01:04:32;;;;;;;4.97;2.17;;;9.60;99.90;;;;;;5095635;28;20924;-78
2023/01/08 01:06:58;;;;;;;4.87;2.10;;;9.60;99.90;;;;;;5088530;28;20455;-78
2023/01/08 01:09:24;;;;;;;5.25;2.10;;;9.60;99.90;;;;;;5091621;28;20918;-78
2023/01/08 01:11:49;;;;;;;3.40;2.10;;;9.60;99.90;;;;;;5095077;28;20411;-78
2023/01/08 01:14:15;;;;;;;6.20;2.50;;;9.60;99.90;;;;;;5093010;28;20410;-78
2023/01/08 01:16:41;;;;;;;3.08;2.10;;;9.60;99.90;;;;;;5095772;28;20406;-78
2023/01/08 01:19:07;;;;;;;4.20;2.20;;;9.60;99.90;;;;;;5092619;28;20394;-78
2023/01/08 01:21:33;;;;;;;3.97;2.27;;;9.60;99.90;;;;;;5095584;28;20400;-78
2023/01/08 01:24:04;;;;;;;3.42;2.10;;;9.50;99.90;;;;;;5093512;28;20487;-78
2023/01/08 01:26:31;;;;;;;3.15;2.00;;;9.50;99.90;;;;;;5096978;28;20416;-78
2023/01/08 01:28:58;;;;;;;3.08;1.85;;;9.50;99.90;;;;;;5084833;28;20447;-78
2023/01/08 01:31:25;;;;;;;3.90;1.90;;;9.40;99.90;;;;;;5098379;28;20401;-78
2023/01/08 01:33:51;;;;;;;4.32;2.13;;;9.40;99.90;;;;;;5093805;28;20405;-78
2023/01/08 01:36:19;;;;;;;3.65;2.03;;;9.40;99.90;;;;;;5098002;28;20414;-78
2023/01/08 01:38:46;;;;;;;3.42;1.95;;;9.40;99.90;;;;;;5092297;28;20413;-78
2023/01/08 01:41:23;;;;;;;3.13;1.67;;;9.40;99.90;;;;;;5097235;28;20402;-78
2023/01/08 01:43:48;;;;;;;4.25;1.80;;;9.40;99.90;;;;;;5094160;28;20475;-78
2023/01/08 01:46:23;;;;;;;2.85;1.50;;;9.40;99.90;;;;;;5098572;28;20443;-78
2023/01/08 01:48:52;;;;;;;3.65;1.40;;;9.40;99.90;;;;;;5094160;28;20527;-78
2023/01/08 01:51:19;;;;;;;3.67;1.60;;;9.40;99.90;;;;;;5087320;28;20441;-78
2023/01/08 01:53:45;;;;;;;3.10;1.55;;;9.40;99.90;;;;;;5087697;28;20414;-78
2023/01/08 01:56:10;;;;;;;3.58;1.70;;;9.40;99.90;;;;;;5089658;28;20409;-77
2023/01/08 01:58:36;;;;;;;3.70;1.80;;;9.40;99.90;;;;;;5088554;28;20402;-78
2023/01/08 02:01:05;;;;;;;3.70;1.80;;;9.50;99.90;;;;;;5092451;28;20858;-78
2023/01/08 02:03:36;;;;;;;3.90;1.65;;;9.40;99.90;;;;;;5091784;28;20428;-78
2023/01/08 02:06:40;;;;;;;3.33;1.83;;;9.50;99.90;;;;;;5089643;28;20467;-78
2023/01/08 02:09:21;;;;;;;3.40;2.00;;;9.50;99.90;;;;;;5075686;28;20421;-78
2023/01/08 02:12:16;;;;;;;2.63;1.80;;;9.40;99.90;;;;;;5087586;28;20448;-78
2023/01/08 02:14:59;;;;;;;3.17;1.80;;;9.50;99.90;;;;;;5070500;28;20453;-78
2023/01/08 02:17:56;;;;;;;5.65;2.10;;;9.50;99.90;;;;;;5087173;28;20410;-78
2023/01/08 02:20:35;;;;;;;4.00;2.00;;;9.40;99.90;;;;;;5087339;28;20462;-78
2023/01/08 02:23:36;;;;;;;4.00;1.67;;;9.40;99.90;;;;;;5091294;28;20434;-78
2023/01/08 02:26:01;;;;;;;4.00;1.48;;;9.50;99.90;;;;;;5071835;28;20414;-78
2023/01/08 02:28:29;;;;;;;4.63;1.60;;;9.40;99.90;;;;;;5090729;28;20455;-78
2023/01/08 02:30:55;;;;;;;3.92;1.50;;;9.50;99.90;;;;;;5086970;28;20977;-78
2023/01/08 02:33:22;;;;;;;3.67;1.63;;;9.40;99.90;;;;;;5091108;28;20480;-78
2023/01/08 02:35:54;;;;;;;4.00;1.40;;;9.40;99.90;;;;;;5082043;28;20414;-79
2023/01/08 02:38:22;;;;;;;5.22;1.25;;;9.40;99.90;;;;;;5069832;28;21264;-79
2023/01/08 02:41:03;;;;;;;3.70;1.33;;;9.40;99.90;;;;;;5086194;28;20402;-78
2023/01/08 02:43:43;;;;;;;4.20;1.00;;;9.40;99.90;;;;;;5086470;28;21006;-78
2023/01/08 02:46:13;;;;;;;5.18;1.40;;;9.30;99.90;;;;;;5070963;28;20882;-79
2023/01/08 02:48:44;;;;;;;5.55;1.70;;;9.30;99.90;;;;;;5087880;28;20729;-79
2023/01/08 02:51:26;;;;;;;5.22;1.20;;;9.20;99.90;;;;;;5086833;28;20409;-79
2023/01/08 02:53:57;;;;;;;5.57;1.20;;;9.20;99.90;;;;;;5087069;28;20822;-78
2023/01/08 02:56:28;;;;;;;5.00;1.20;;;9.20;99.90;;;;;;5085530;28;20409;-78
2023/01/08 02:58:57;;;;;;;6.27;1.07;;;9.20;99.90;;;;;;5086916;28;20406;-78
2023/01/08 03:01:23;;;;;;;8.15;1.50;;;9.10;99.90;;;;;;5086041;28;20434;-78
2023/01/08 03:03:54;;;;;;;7.00;1.10;;;9.10;99.90;;;;;;5088046;28;20432;-79
2023/01/08 03:06:21;;;;;;;5.88;0.98;;;9.10;99.90;;;;;;5086522;28;20441;-78
2023/01/08 03:08:50;;;;;;;6.63;1.10;;;9.10;99.90;;;;;;5087799;28;20487;-79
2023/01/08 03:11:21;;;;;;;6.78;1.38;;;9.10;99.90;;;;;;5085570;28;20413;-78
2023/01/08 03:14:04;;;;;;;7.47;1.38;;;9.10;99.90;;;;;;5085943;28;20406;-79
2023/01/08 03:16:44;;;;;;;7.82;1.17;;;9.00;99.90;;;;;;5086237;28;20422;-78
2023/01/08 03:19:20;;;;;;;6.40;1.07;;;9.00;99.90;;;;;;5086398;28;20406;-78
2023/01/08 03:21:47;;;;;;;6.85;0.95;;;8.90;99.90;;;;;;5086366;28;20979;-78
2023/01/08 03:24:16;;;;;;;8.53;1.17;;;8.90;99.90;;;;;;5086146;28;20432;-78
2023/01/08 03:26:44;;;;;;;9.33;1.03;;;9.00;99.90;;;;;;5087919;28;20436;-78
2023/01/08 03:29:13;;;;;;;9.02;1.33;;;8.90;99.90;;;;;;5086630;28;20414;-78
2023/01/08 03:31:40;;;;;;;7.70;1.00;;;8.80;99.90;;;;;;5076276;28;20402;-79
2023/01/08 03:34:07;;;;;;;10.15;1.40;;;8.80;99.90;;;;;;5086131;28;20445;-78
2023/01/08 03:36:36;;;;;;;7.65;1.48;;;8.80;99.90;;;;;;5086776;28;20398;-78
2023/01/08 03:39:12;;;;;;;8.20;1.30;;;8.80;99.90;;;;;;5085942;28;20447;-78
2023/01/08 03:41:38;;;;;;;9.00;1.63;;;8.70;99.90;;;;;;5085924;28;20418;-78
2023/01/08 03:44:04;;;;;;;6.82;1.02;;;8.70;99.90;;;;;;5086503;28;20416;-78
2023/01/08 03:46:37;;;;;;;8.07;1.42;;;8.70;99.90;;;;;;5086203;28;20468;-78
2023/01/08 03:49:05;;;;;;;9.15;1.50;;;8.60;99.90;;;;;;5089105;28;20942;-78
2023/01/08 03:51:41;;;;;;;8.50;1.20;;;8.60;99.90;;;;;;5087668;28;20468;-78
2023/01/08 03:54:11;;;;;;;8.27;1.33;;;8.60;99.90;;;;;;5086286;28;20410;-78
2023/01/08 03:56:37;;;;;;;7.32;1.20;;;8.60;99.90;;;;;;5088709;28;20409;-78
2023/01/08 03:59:02;;;;;;;13.33;1.70;;;8.60;99.90;;;;;;5091283;28;20401;-79
2023/01/08 04:01:28;;;;;;;9.68;1.50;;;8.60;99.90;;;;;;5089932;28;20780;-78
2023/01/08 04:03:53;;;;;;;6.50;1.10;;;8.60;99.90;;;;;;5089377;28;20482;-78
2023/01/08 04:06:19;;;;;;;6.60;1.15;;;8.50;99.90;;;;;;5090109;28;20404;-79
2023/01/08 04:08:47;;;;;;;7.07;1.10;;;8.50;99.90;;;;;;5090181;28;20410;-78
2023/01/08 04:11:13;;;;;;;8.43;1.15;;;8.50;99.90;;;;;;5092256;28;20911;-78
2023/01/08 04:13:38;;;;;;;8.95;1.58;;;8.50;99.90;;;;;;5089556;28;20406;-78
2023/01/08 04:16:04;;;;;;;9.67;1.23;;;8.50;99.90;;;;;;5089665;28;20402;-78
2023/01/08 04:18:30;;;;;;;7.63;1.50;;;8.40;99.90;;;;;;5089498;28;20420;-78
2023/01/08 04:20:56;;;;;;;7.80;1.10;;;8.40;99.90;;;;;;5088571;28;20410;-78
2023/01/08 04:23:21;;;;;;;8.40;1.40;;;8.40;99.90;;;;;;5088913;28;20436;-78
2023/01/08 04:25:47;;;;;;;8.60;1.30;;;8.40;99.90;;;;;;5089108;28;20455;-78
2023/01/08 04:28:13;;;;;;;6.30;1.27;;;8.40;99.90;;;;;;5090103;28;20947;-78
2023/01/08 04:30:38;;;;;;;7.57;1.50;;;8.30;99.90;;;;;;5091525;28;20481;-78
2023/01/08 04:33:04;;;;;;;9.30;1.30;;;8.30;99.90;;;;;;5090374;28;20473;-78
2023/01/08 04:35:29;;;;;;;10.43;1.67;;;8.20;99.90;;;;;;5072961;28;20433;-78
2023/01/08 04:37:55;;;;;;;6.97;1.63;;;8.30;99.90;;;;;;5088637;28;20418;-78
2023/01/08 04:40:21;;;;;;;9.63;1.65;;;8.20;99.90;;;;;;5089396;28;20737;-78
2023/01/08 04:42:46;;;;;;;8.00;1.80;;;8.20;99.90;;;;;;5088779;28;20430;-78
2023/01/08 04:45:12;;;;;;;7.60;1.20;;;8.20;99.90;;;;;;5088967;28;20760;-79
2023/01/08 04:47:37;;;;;;;6.47;1.70;;;8.20;99.90;;;;;;5092142;28;20398;-79
2023/01/08 04:50:03;;;;;;;8.52;1.60;;;8.10;99.90;;;;;;5090144;28;20406;-78
2023/01/08 04:52:29;;;;;;;9.27;1.73;;;8.10;99.90;;;;;;5090664;28;20448;-78
2023/01/08 04:54:54;;;;;;;7.50;1.70;;;8.10;99.90;;;;;;5089999;28;20399;-78
2023/01/08 04:57:20;;;;;;;6.97;2.20;;;8.10;99.90;;;;;;5071811;28;20402;-78
2023/01/08 04:59:46;;;;;;;6.00;1.90;;;8.10;99.90;;;;;;5088275;28;20414;-78
2023/01/08 05:02:12;;;;;;;6.50;1.90;;;8.10;99.90;;;;;;5088461;28;20453;-78
2023/01/08 05:04:37;;;;;;;6.57;2.30;;;8.10;99.90;;;;;;5088679;28;20857;-78
2023/01/08 05:07:03;;;;;;;5.07;1.98;;;8.10;99.90;;;;;;5088826;28;20402;-78
2023/01/08 05:09:29;;;;;;;6.70;2.55;;;8.20;99.90;;;;;;5091033;28;20440;-78
2023/01/08 05:11:55;;;;;;;5.97;2.40;;;8.30;99.90;;;;;;5093369;28;20406;-78
2023/01/08 05:14:20;;;;;;;7.70;2.45;;;8.30;99.90;;;;;;5091107;28;20437;-78
2023/01/08 05:16:46;;;;;;;5.10;2.10;;;8.40;99.90;;;;;;5089518;28;20425;-78
2023/01/08 05:19:12;;;;;;;4.65;1.90;;;8.40;99.90;;;;;;5071712;28;20398;-78
2023/01/08 05:21:37;;;;;;;4.75;2.20;;;8.40;99.90;;;;;;5096315;28;20805;-78
2023/01/08 05:24:03;;;;;;;4.60;1.50;;;8.50;99.90;;;;;;5091619;28;20426;-78
2023/01/08 05:26:29;;;;;;;5.07;1.97;;;8.50;99.90;;;;;;5092212;28;20414;-78
2023/01/08 05:28:54;;;;;;;4.35;1.70;;;8.50;99.90;;;;;;5093263;28;20400;-78
2023/01/08 05:31:20;;;;;;;4.50;1.80;;;8.60;99.90;;;;;;5092401;28;20441;-78
2023/01/08 05:33:46;;;;;;;5.40;1.70;;;8.60;99.90;;;;;;5087757;28;20406;-78
2023/01/08 05:36:12;;;;;;;4.93;1.70;;;8.60;99.90;;;;;;5097804;28;20412;-78
2023/01/08 05:38:38;;;;;;;4.17;1.60;;;8.60;99.90;;;;;;5094826;28;20480;-78
2023/01/08 05:41:05;;;;;;;3.58;1.50;;;8.60;99.90;;;;;;5097221;28;20430;-78
2023/01/08 05:43:31;;;;;;;4.78;1.55;;;8.60;99.90;;;;;;5092573;28;20795;-78
2023/01/08 05:45:58;;;;;;;5.00;1.50;;;8.70;99.90;;;;;;5089444;28;20410;-78
2023/01/08 05:48:25;;;;;;;6.00;1.70;;;8.60;99.90;;;;;;5089873;28;20462;-78
2023/01/08 05:50:50;;;;;;;3.53;1.42;;;8.60;99.90;;;;;;5090453;28;20411;-79
2023/01/08 05:53:16;;;;;;;4.95;1.65;;;8.60;99.90;;;;;;5088901;28;20399;-78
2023/01/08 05:55:41;;;;;;;6.50;1.60;;;8.60;99.90;;;;;;5089817;28;20895;-78
2023/01/08 05:58:07;;;;;;;4.15;1.20;;;8.60;99.90;;;;;;5083218;28;20414;-78
2023/01/08 06:00:33;;;;;;;5.27;1.40;;;8.60;99.90;;;;;;5087182;28;20413;-78
2023/01/08 06:02:59;;;;;;;3.30;1.20;;;8.60;99.90;;;;;;5091610;28;20510;-78
2023/01/08 06:05:25;;;;;;;5.57;1.40;;;8.60;99.90;;;;;;5086681;28;20437;-78
2023/01/08 06:07:50;;;;;;;5.53;1.35;;;8.60;99.90;;;;;;5087072;28;20398;-78
2023/01/08 06:10:16;;;;;;;4.93;1.57;;;8.60;99.90;;;;;;5087154;28;20835;-78
2023/01/08 06:12:42;;;;;;;4.03;1.20;;;8.60;99.90;;;;;;5088068;28;20440;-78
2023/01/08 06:15:08;;;;;;;4.37;1.37;;;8.60;99.90;;;;;;5086703;28;20915;-78
2023/01/08 06:17:34;;;;;;;3.63;0.98;;;8.60;99.90;;;;;;5086952;28;20406;-78
2023/01/08 06:20:00;;;;;;;4.47;0.90;;;8.60;99.90;;;;;;5074129;28;20398;-78
2023/01/08 06:22:26;;;;;;;3.38;0.90;;;8.60;99.90;;;;;;5087456;28;20436;-78
2023/01/08 06:24:52;;;;;;;4.35;1.30;;;8.60;99.90;;;;;;5087236;28;20399;-78
2023/01/08 06:27:18;;;;;;;7.93;1.42;;;8.60;99.90;;;;;;5086554;28;20394;-78
2023/01/08 06:29:43;;;;;;;5.30;1.30;;;8.50;99.90;;;;;;5088069;28;20406;-78
2023/01/08 06:32:09;;;;;;;3.30;1.10;;;8.50;99.90;;;;;;5086909;28;20414;-78
2023/01/08 06:34:34;;;;;;;4.77;1.10;;;8.50;99.90;;;;;;5069430;28;20822;-78
2023/01/08 06:37:00;;;;;;;4.97;1.40;;;8.50;99.90;;;;;;5087064;28;20416;-78
2023/01/08 06:39:26;;;;;;;2.97;0.97;;;8.50;99.90;;;;;;5086897;28;20772;-78
2023/01/08 06:41:51;;;;;;;4.47;1.23;;;8.40;99.90;;;;;;5086840;28;20431;-78
2023/01/08 06:44:17;;;;;;;6.70;1.33;;;8.40;99.90;;;;;;5086979;28;20455;-78
2023/01/08 06:46:43;;;;;;;4.10;1.10;;;8.40;99.90;;;;;;5088603;28;20859;-78
2023/01/08 06:49:09;;;;;;;5.88;1.65;;;8.50;99.90;;;;;;5087045;28;20429;-78
2023/01/08 06:51:35;;;;;;;4.65;1.30;;;8.50;99.90;;;;;;5088223;28;20402;-78
2023/01/08 06:54:01;;;;;;;4.22;1.40;;;8.50;99.90;;;;;;5086844;28;20402;-78
2023/01/08 06:56:27;;;;;;;4.47;1.23;;;8.60;99.90;;;;;;5086605;28;20402;-78
2023/01/08 06:58:52;;;;;;;3.20;1.02;;;8.60;99.90;;;;;;5087016;28;20505;-78
2023/01/08 07:01:18;;;;;;;4.30;1.47;;;8.60;99.90;;;;;;5086337;28;20477;-78
2023/01/08 07:03:44;;;;;;;4.18;1.38;;;8.60;99.90;;;;;;5086259;28;20429;-79
2023/01/08 07:06:20;;;;;;;3.20;1.33;;;8.60;99.90;;;;;;5086315;28;20749;-78
2023/01/08 07:08:46;;;;;;;3.03;1.33;;;8.60;99.90;;;;;;5086406;28;20402;-78
2023/01/08 07:11:13;;;;;;;5.13;1.45;;;8.60;99.90;;;;;;5087749;28;20771;-78
2023/01/08 07:13:38;;;;;;;3.50;1.60;;;8.60;99.90;;;;;;5086711;28;20398;-78
2023/01/08 07:16:14;;;;;;;3.17;1.77;;;8.60;99.90;;;;;;5086664;28;21335;-78
2023/01/08 07:18:41;;;;;;;6.10;1.90;;;8.60;99.90;;;;;;5086284;28;20438;-78
2023/01/08 07:21:07;;;;;;;5.18;1.83;;;8.60;99.90;;;;;;5086339;28;20418;-79
2023/01/08 07:23:33;;;;;;;5.57;1.88;;;8.50;99.90;;;;;;5086320;28;20814;-78
2023/01/08 07:26:00;;;;;;;4.82;2.10;;;8.50;99.90;;;;;;5086317;28;20451;-78
2023/01/08 07:28:26;;;;;;;5.72;2.10;;;8.50;99.90;;;;;;5087404;28;20394;-78
2023/01/08 07:30:52;;;;;;;4.70;1.85;;;8.40;99.90;;;;;;5086008;28;20406;-78
2023/01/08 07:33:17;;;;;;;4.82;1.90;;;8.40;99.90;;;;;;5088118;28;20767;-78
2023/01/08 07:35:43;;;;;;;5.90;2.20;;;8.30;99.90;;;;;;5090008;28;20451;-79
2023/01/08 07:38:08;;;;;;;8.20;2.15;;;8.30;99.90;;;;;;5090294;28;20409;-78
2023/01/08 07:40:34;;;;;;;5.43;2.03;;;8.30;99.90;;;;;;5090200;28;20767;-78
2023/01/08 07:43:02;;;;;;;4.03;2.00;;;8.20;99.90;;;;;;5090278;28;20432;-78
2023/01/08 07:45:28;;;;;;;4.93;2.20;;;8.20;99.90;;;;;;5090587;28;20489;-78
2023/01/08 07:47:57;;;;;;;9.63;2.80;;;8.20;99.90;;;;;;5090155;28;20998;-78
2023/01/08 07:50:22;;;;;;;5.70;1.98;;;8.20;99.90;;;;;;5090208;28;20454;-78
2023/01/08 07:52:48;;;;;;;5.57;1.77;;;8.10;99.90;;;;;;5090141;28;20887;-78
2023/01/08 07:55:14;;;;;;;4.07;1.87;;;8.10;99.90;;;;;;5090039;28;20430;-78
2023/01/08 07:57:39;;;;;;;4.93;1.80;;;8.10;99.90;;;;;;5090206;28;20412;-79
2023/01/08 08:00:08;;;;;;;6.45;1.90;;;8.00;99.90;;;;;;5090306;28;20942;-78
2023/01/08 08:02:33;;;;;;;8.10;1.73;;;8.00;99.90;;;;;;5089579;28;21241;-78
2023/01/08 08:04:59;;;;;;;7.70;2.00;;;8.00;99.90;;;;;;5089156;28;20408;-78
2023/01/08 08:07:24;;;;;;;7.07;1.70;;;7.90;99.90;;;;;;5084421;28;20427;-79
2023/01/08 08:09:50;;;;;;;7.13;1.80;;;7.90;99.90;;;;;;5085332;28;20485;-79
2023/01/08 08:12:15;;;;;;;6.63;1.80;;;7.90;99.90;;;;;;5080142;28;20533;-79
2023/01/08 08:14:41;;;;;;;5.00;1.20;;;8.00;99.90;;;;;;5086946;28;20964;-78
2023/01/08 08:17:06;;;;;;;4.00;1.33;;;8.00;99.90;;;;;;5085665;28;20445;-78
2023/01/08 08:19:32;;;;;;;6.07;1.80;;;8.00;99.90;;;;;;5088137;28;20431;-79
2023/01/08 08:21:58;;;;;;;7.07;1.70;;;8.10;99.90;;;;;;5091427;28;20402;-77
2023/01/08 08:24:23;;;;;;;6.50;1.30;;;8.10;99.90;;;;;;5079261;28;20433;-78
2023/01/08 08:26:49;;;;;;;8.13;1.73;;;8.20;99.90;;;;;;5076969;28;20432;-78
2023/01/08 08:29:15;;;;;;;4.93;1.33;;;8.10;99.90;;;;;;5083481;28;20401;-78
2023/01/08 08:31:41;;;;;;;6.13;1.40;;;8.10;99.90;;;;;;5064106;28;20406;-78
2023/01/08 08:34:07;;;;;;;4.88;1.40;;;8.10;99.90;;;;;;5059966;28;20403;-77
2023/01/08 08:36:33;;;;;;;8.10;1.85;;;8.10;99.90;;;;;;5069146;28;20425;-78
2023/01/08 08:38:58;;;;;;;7.20;2.03;;;8.10;99.90;;;;;;5077363;28;20422;-79
2023/01/08 08:41:24;;;;;;;5.45;2.22;;;8.10;99.90;;;;;;5063796;28;20413;-79
2023/01/08 08:43:50;;;;;;;7.20;2.40;;;8.10;99.90;;;;;;5078097;28;20431;-79
2023/01/08 08:46:17;;;;;;;7.73;2.53;;;8.00;99.90;;;;;;5085175;28;20425;-78
2023/01/08 08:48:45;;;;;;;6.93;2.75;;;8.00;99.90;;;;;;5071105;28;20438;-79
2023/01/08 08:51:12;;;;;;;7.32;3.20;;;8.00;99.90;;;;;;5054996;28;20395;-79
2023/01/08 08:53:38;;;;;;;6.00;2.97;;;8.00;99.90;;;;;;5081760;28;20404;-79
2023/01/08 08:56:03;;;;;;;7.88;2.90;;;7.90;99.90;;;;;;5082554;28;20417;-79
2023/01/08 08:58:29;;;;;;;10.25;3.20;;;7.90;99.90;;;;;;5080775;28;20415;-79
2023/01/08 09:01:00;;;;;;;11.03;2.87;;;7.90;99.90;;;;;;5086334;28;20406;-79
2023/01/08 09:03:26;;;;;;;8.50;2.92;;;7.90;99.90;;;;;;5086252;28;20429;-79
2023/01/08 09:05:51;;;;;;;10.82;2.95;;;7.90;99.90;;;;;;5084968;28;20413;-79
2023/01/08 09:08:17;;;;;;;10.90;3.07;;;7.90;99.90;;;;;;5078596;28;20407;-79
2023/01/08 09:10:42;;;;;;;7.20;2.78;;;7.90;99.90;;;;;;5082110;28;20455;-79
2023/01/08 09:13:09;;;;;;;7.67;2.90;;;7.90;99.90;;;;;;5077168;28;20422;-77
2023/01/08 09:15:36;;;;;;;8.77;3.20;;;8.00;99.90;;;;;;5082092;28;20501;-77
2023/01/08 09:18:02;;;;;;;9.20;2.72;;;8.00;99.90;;;;;;5087480;28;20402;-77
2023/01/08 09:20:27;;;;;;;10.17;2.97;;;8.00;99.90;;;;;;5087801;28;20425;-77
2023/01/08 09:22:53;;;;;;;8.75;3.20;;;8.00;99.90;;;;;;5087155;28;20510;-77
2023/01/08 09:25:19;;;;;;;9.18;2.38;;;8.00;99.90;;;;;;5087073;28;20414;-77
2023/01/08 09:27:45;;;;;;;7.10;2.30;;;8.00;99.90;;;;;;5087674;28;20800;-77
2023/01/08 09:30:11;;;;;;;7.67;2.40;;;8.10;99.90;;;;;;5085767;28;20540;-77
2023/01/08 09:32:37;;;;;;;8.57;2.28;;;8.10;99.90;;;;;;5082700;28;20444;-75
2023/01/08 09:35:03;;;;;;;8.30;2.10;;;8.10;99.90;;;;;;5087814;28;20426;-76
2023/01/08 09:37:29;;;;;;;9.48;2.05;;;8.10;99.90;;;;;;5089221;28;20414;-76
2023/01/08 09:39:55;;;;;;;7.30;2.15;;;8.20;99.90;;;;;;5083659;28;20406;-76
2023/01/08 09:42:26;;;;;;;6.27;1.97;;;8.20;99.90;;;;;;5086927;28;20430;-77
2023/01/08 09:44:56;;;;;;;7.68;2.03;;;8.20;99.90;;;;;;5082594;28;20497;-77
2023/01/08 09:47:32;;;;;;;6.07;1.70;;;8.30;99.90;;;;;;5088009;28;20544;-76
2023/01/08 09:50:01;;;;;;;6.40;2.10;;;8.30;99.90;;;;;;5083419;28;20487;-76
2023/01/08 09:52:29;;;;;;;5.22;1.65;;;8.30;99.90;;;;;;5058129;28;20481;-76
2023/01/08 09:54:54;;;;;;;9.90;2.07;;;8.40;99.90;;;;;;5069912;28;20397;-77
2023/01/08 09:57:21;;;;;;;7.50;2.13;;;8.40;99.90;;;;;;5087589;28;20406;-77
2023/01/08 09:59:48;;;;;;;7.82;1.70;;;8.40;99.90;;;;;;5087453;28;20402;-76
2023/01/08 10:02:19;;;;;;;6.97;1.50;;;8.40;99.90;;;;;;5087344;28;20429;-76
2023/01/08 10:04:47;;;;;;;5.60;1.25;;;8.50;99.90;;;;;;5087769;28;20430;-77
2023/01/08 10:07:24;;;;;;;6.65;1.40;;;8.50;99.90;;;;;;5090094;28;20410;-77
2023/01/08 10:09:51;;;;;;;6.17;1.40;;;8.50;99.90;;;;;;5097876;28;20443;-77
2023/01/08 10:12:28;;;;;;;6.13;1.20;;;8.50;99.90;;;;;;5091617;28;20445;-77
2023/01/08 10:15:07;;;;;;;6.40;0.97;;;8.60;99.90;;;;;;5108634;28;20403;-77
2023/01/08 10:17:53;;;;;;;5.53;0.90;;;8.60;99.90;;;;;;5092079;28;20444;-77
2023/01/08 10:20:22;;;;;;;6.28;1.20;;;8.70;99.90;;;;;;5101192;28;20445;-77
2023/01/08 10:22:48;;;;;;;6.47;1.30;;;8.70;99.90;;;;;;5085694;28;20838;-77
2023/01/08 10:25:18;;;;;;;7.15;1.58;;;8.70;99.90;;;;;;5086577;28;20566;-77
2023/01/08 10:28:00;;;;;;;5.60;1.23;;;8.70;99.90;;;;;;5087645;28;20418;-77
2023/01/08 10:30:38;;;;;;;7.90;1.10;;;8.80;99.90;;;;;;5086540;28;20426;-77
2023/01/08 10:33:09;;;;;;;8.00;1.40;;;8.80;99.90;;;;;;5097819;28;20613;-77
2023/01/08 10:35:38;;;;;;;5.90;1.13;;;8.90;99.90;;;;;;5097862;28;20416;-77
2023/01/08 10:38:04;;;;;;;5.78;1.15;;;8.90;99.90;;;;;;5087368;28;20927;-77
2023/01/08 10:40:42;;;;;;;8.88;1.40;;;8.90;99.90;;;;;;5094537;28;20426;-77
2023/01/08 10:43:17;;;;;;;6.05;1.20;;;8.90;99.90;;;;;;5084746;28;20437;-77
2023/01/08 10:45:54;;;;;;;8.85;1.30;;;9.00;99.90;;;;;;5086200;28;20544;-77
2023/01/08 10:48:20;;;;;;;6.72;1.10;;;9.00;99.90;;;;;;5070339;28;20406;-77
2023/01/08 10:50:46;;;;;;;8.43;1.35;;;9.10;99.90;;;;;;5088500;28;20404;-77
2023/01/08 10:53:24;;;;;;;6.45;1.40;;;9.10;99.90;;;;;;5088603;28;20783;-77
2023/01/08 10:56:01;;;;;;;7.93;1.30;;;9.20;99.90;;;;;;5087472;28;20837;-77
2023/01/08 10:58:28;;;;;;;7.45;1.20;;;9.30;99.90;;;;;;5077116;28;20414;-77
2023/01/08 11:00:56;;;;;;;12.55;1.95;;;9.50;99.90;;;;;;5088958;28;20417;-77
2023/01/08 11:03:31;;;;;;;10.35;1.52;;;9.70;99.90;;;;;;5085931;28;20521;-77
2023/01/08 11:05:57;;;;;;;8.93;1.40;;;10.00;99.90;;;;;;5089416;28;20404;-77
2023/01/08 11:08:23;;;;;;;6.53;1.45;;;10.30;99.90;;;;;;5085429;28;20425;-77
2023/01/08 11:11:00;;;;;;;9.33;1.23;;;10.60;99.90;;;;;;5084197;28;20445;-75
2023/01/08 11:13:27;;;;;;;9.50;1.35;;;10.90;99.90;;;;;;5085930;28;20405;-74
2023/01/08 11:16:03;;;;;;;9.50;1.50;;;10.90;99.90;;;;;;5090424;28;20814;-77
2023/01/08 11:18:30;;;;;;;7.68;1.25;;;11.00;99.90;;;;;;5089786;28;20449;-77
2023/01/08 11:21:09;;;;;;;10.33;1.90;;;11.00;99.90;;;;;;5084627;28;20564;-77
2023/01/08 11:23:35;;;;;;;6.40;1.30;;;11.10;99.90;;;;;;5074817;28;20494;-77
2023/01/08 11:26:13;;;;;;;6.88;1.35;;;11.20;99.90;;;;;;5087947;28;20398;-77
2023/01/08 11:29:01;;;;;;;9.35;1.05;;;11.50;99.90;;;;;;5086209;28;20919;-78
2023/01/08 11:31:42;;;;;;;8.07;1.30;;;11.60;99.90;;;;;;5086028;28;20441;-78
2023/01/08 11:34:37;;;;;;;6.70;1.42;;;11.60;99.90;;;;;;5087025;28;20442;-77
2023/01/08 11:37:18;;;;;;;9.02;1.70;;;11.50;99.90;;;;;;5078808;28;20414;-78
2023/01/08 11:39:44;;;;;;;8.10;1.40;;;11.50;99.90;;;;;;5086964;28;20916;-78
2023/01/08 11:42:37;;;;;;;8.07;1.50;;;11.50;99.90;;;;;;5103156;28;20404;-78
2023/01/08 11:45:32;;;;;;;8.02;1.30;;;11.40;99.90;;;;;;5101734;28;20441;-78
2023/01/08 11:48:35;;;;;;;8.68;1.20;;;11.30;99.90;;;;;;5098547;28;20954;-78
2023/01/08 11:51:33;;;;;;;11.43;1.63;;;11.10;99.90;;;;;;5098879;28;20426;-77
2023/01/08 11:54:36;;;;;;;8.48;1.25;;;10.90;99.90;;;;;;5100906;28;20408;-77
2023/01/08 11:57:08;;;;;;;10.20;1.55;;;10.70;99.90;;;;;;5072294;28;20468;-77
2023/01/08 11:59:40;;;;;;;10.48;1.40;;;10.70;99.90;;;;;;5096005;28;20490;-77
2023/01/08 12:02:25;;;;;;;7.03;1.10;;;10.70;99.90;;;;;;5096378;28;20412;-77
2023/01/08 12:05:05;;;;;;;8.63;1.30;;;10.60;99.90;;;;;;5078094;28;20749;-78
2023/01/08 12:07:41;;;;;;;9.73;1.57;;;10.50;99.90;;;;;;5084928;28;20788;-77
2023/01/08 12:10:17;;;;;;;9.70;1.50;;;10.40;99.90;;;;;;5086318;28;20436;-78
2023/01/08 12:13:23;;;;;;;7.20;1.20;;;10.30;99.90;;;;;;5087173;28;20446;-78
2023/01/08 12:16:08;;;;;;;6.87;1.20;;;10.40;99.90;;;;;;5085425;28;20510;-77
2023/01/08 12:18:58;;;;;;;7.43;1.30;;;10.50;99.90;;;;;;5086536;28;20422;-78
2023/01/08 12:21:43;;;;;;;8.85;1.27;;;10.50;99.90;;;;;;5089248;28;20414;-78
2023/01/08 12:24:21;;;;;;;8.73;1.77;;;10.60;99.90;;;;;;5086774;28;20936;-77
2023/01/08 12:27:03;;;;;;;8.98;1.55;;;10.60;99.90;;;;;;5090888;28;20505;-77
2023/01/08 12:29:53;;;;;;;7.78;1.55;;;10.50;99.90;;;;;;5072929;28;20494;-78
2023/01/08 12:32:46;;;;;;;9.50;1.63;;;10.60;99.90;;;;;;5080380;28;20939;-77
2023/01/08 12:35:26;;;;;;;8.37;1.40;;;10.50;99.90;;;;;;5089432;28;20449;-77
2023/01/08 12:38:08;;;;;;;8.02;1.50;;;10.40;99.90;;;;;;5090323;28;20417;-77
2023/01/08 12:40:41;;;;;;;9.70;1.77;;;10.40;99.90;;;;;;5077713;28;21018;-78
2023/01/08 12:43:20;;;;;;;7.05;1.48;;;10.40;99.90;;;;;;5088578;28;20460;-77
2023/01/08 12:45:49;;;;;;;8.20;1.58;;;10.50;99.90;;;;;;5088749;28;20805;-77
2023/01/08 12:48:20;;;;;;;9.57;1.70;;;10.80;99.90;;;;;;5090200;28;20755;-77
2023/01/08 12:50:56;;;;;;;10.07;1.60;;;10.70;99.90;;;;;;5072350;28;20467;-78
2023/01/08 12:53:59;;;;;;;8.68;1.60;;;10.60;99.90;;;;;;5089282;28;20417;-78
2023/01/08 12:57:18;;;;;;;9.98;1.60;;;10.50;99.90;;;;;;5071596;28;20410;-78
2023/01/08 13:00:01;;;;;;;10.52;1.40;;;10.60;99.90;;;;;;5055981;28;20931;-78
2023/01/08 13:02:37;;;;;;;10.05;1.50;;;10.60;99.90;;;;;;5088514;28;20428;-77
2023/01/08 13:05:18;;;;;;;11.60;1.80;;;10.50;99.90;;;;;;5072112;28;20448;-77
2023/01/08 13:07:46;;;;;;;9.93;1.50;;;10.40;99.90;;;;;;5088722;28;20410;-77
2023/01/08 13:10:39;;;;;;;9.25;1.67;;;10.30;99.90;;;;;;5088420;28;20411;-78